createdAt,value
2023-01-01T00:00:49.339Z,7.70
2023-01-01T00:03:37.421Z,8.40
2023-01-01T00:06:14.183Z,9.40
2023-01-01T00:08:41.909Z,13.80
2023-01-01T00:11:10.425Z,14.50
2023-01-01T00:13:40.249Z,13.50
2023-01-01T00:16:10.789Z,12.50
2023-01-01T00:18:39.126Z,11.20
2023-01-01T00:21:10.394Z,10.60
2023-01-01T00:23:39.035Z,9.70
2023-01-01T00:26:15.808Z,9.90
2023-01-01T00:28:44.859Z,8.70
2023-01-01T00:31:17.225Z,8.10
2023-01-01T00:33:55.420Z,8.10
2023-01-01T00:36:25.138Z,7.70
2023-01-01T00:38:53.268Z,7.10
2023-01-01T00:41:21.371Z,8.00
2023-01-01T00:43:49.109Z,7.20
2023-01-01T00:46:16.819Z,7.20
2023-01-01T00:48:44.680Z,7.00
2023-01-01T00:51:12.315Z,7.70
2023-01-01T00:53:40.069Z,8.30
2023-01-01T00:56:07.900Z,8.60
2023-01-01T00:58:35.607Z,8.00
2023-01-01T01:01:03.947Z,8.40
2023-01-01T01:03:31.931Z,8.70
2023-01-01T01:06:02.645Z,8.70
2023-01-01T01:08:32.461Z,8.10
2023-01-01T01:11:08.193Z,9.30
2023-01-01T01:13:36.257Z,8.60
2023-01-01T01:16:15.016Z,9.30
2023-01-01T01:18:43.459Z,8.80
2023-01-01T01:21:15.009Z,8.50
2023-01-01T01:23:42.747Z,8.70
2023-01-01T01:26:19.373Z,8.40
2023-01-01T01:28:49.783Z,9.30
2023-01-01T01:31:20.199Z,8.70
2023-01-01T01:33:48.821Z,8.50
2023-01-01T01:36:17.749Z,9.10
2023-01-01T01:38:45.695Z,8.30
2023-01-01T01:41:28.738Z,8.50
2023-01-01T01:44:03.041Z,8.70
2023-01-01T01:46:40.358Z,9.20
2023-01-01T01:49:34.514Z,8.50
2023-01-01T01:52:02.273Z,8.40
2023-01-01T01:54:30.269Z,8.20
2023-01-01T01:57:02.010Z,8.10
2023-01-01T01:59:32.293Z,8.40
2023-01-01T02:02:00.666Z,8.20
2023-01-01T02:04:28.897Z,8.10
2023-01-01T02:06:56.605Z,8.00
2023-01-01T02:09:24.431Z,7.90
2023-01-01T02:11:52.042Z,7.90
2023-01-01T02:14:19.666Z,8.00
2023-01-01T02:16:51.516Z,6.80
2023-01-01T02:19:47.111Z,7.10
2023-01-01T02:22:17.416Z,7.30
2023-01-01T02:24:55.718Z,7.40
2023-01-01T02:27:23.322Z,8.20
2023-01-01T02:30:06.129Z,6.90
2023-01-01T02:32:42.132Z,6.90
2023-01-01T02:35:36.989Z,6.80
2023-01-01T02:38:15.588Z,7.60
2023-01-01T02:40:50.988Z,7.30
2023-01-01T02:43:24.462Z,6.70
2023-01-01T02:45:56.488Z,6.50
2023-01-01T02:48:47.297Z,6.60
2023-01-01T02:51:39.515Z,6.30
2023-01-01T02:54:19.285Z,6.50
2023-01-01T02:57:21.261Z,7.00
2023-01-01T03:00:14.818Z,6.50
2023-01-01T03:03:14.062Z,6.70
2023-01-01T03:06:26.967Z,6.80
2023-01-01T03:09:09.785Z,6.60
2023-01-01T03:11:39.698Z,6.90
2023-01-01T03:14:16.278Z,6.10
2023-01-01T03:17:00.150Z,6.50
2023-01-01T03:19:30.406Z,6.10
2023-01-01T03:22:02.213Z,6.40
2023-01-01T03:24:43.528Z,6.60
2023-01-01T03:27:20.883Z,5.60
2023-01-01T03:29:51.155Z,5.90
2023-01-01T03:32:22.906Z,6.20
2023-01-01T03:34:54.068Z,5.80
2023-01-01T03:37:27.101Z,5.70
2023-01-01T03:39:58.044Z,5.80
2023-01-01T03:42:37.015Z,5.70
2023-01-01T03:45:09.491Z,5.80
2023-01-01T03:47:37.449Z,5.70
2023-01-01T03:50:06.774Z,5.90
2023-01-01T03:52:49.369Z,6.10
2023-01-01T03:55:19.534Z,5.20
2023-01-01T03:58:04.026Z,5.60
2023-01-01T04:00:38.413Z,6.00
2023-01-01T04:03:16.138Z,5.80
2023-01-01T04:05:44.251Z,5.90
2023-01-01T04:08:12.998Z,5.40
2023-01-01T04:10:47.413Z,6.00
2023-01-01T04:13:15.722Z,5.60
2023-01-01T04:15:43.367Z,5.20
2023-01-01T04:18:11.020Z,5.80
2023-01-01T04:20:38.769Z,5.20
2023-01-01T04:23:06.449Z,5.40
2023-01-01T04:25:34.231Z,5.70
2023-01-01T04:28:04.911Z,5.80
2023-01-01T04:30:32.840Z,5.40
2023-01-01T04:33:00.693Z,5.80
2023-01-01T04:35:28.543Z,5.30
2023-01-01T04:37:56.299Z,5.70
2023-01-01T04:40:23.938Z,5.40
2023-01-01T04:42:54.221Z,5.60
2023-01-01T04:45:21.927Z,5.10
2023-01-01T04:47:49.599Z,5.10
2023-01-01T04:50:17.274Z,5.10
2023-01-01T04:52:44.967Z,5.70
2023-01-01T04:55:12.608Z,5.30
2023-01-01T04:57:40.554Z,5.20
2023-01-01T05:00:08.927Z,5.10
2023-01-01T05:02:36.732Z,4.80
2023-01-01T05:05:04.956Z,5.20
2023-01-01T05:07:33.439Z,5.20
2023-01-01T05:10:01.129Z,4.90
2023-01-01T05:12:30.012Z,5.00
2023-01-01T05:14:57.681Z,5.00
2023-01-01T05:17:25.324Z,4.90
2023-01-01T05:19:52.967Z,5.40
2023-01-01T05:22:21.263Z,5.10
2023-01-01T05:24:48.851Z,5.10
2023-01-01T05:27:16.554Z,4.90
2023-01-01T05:29:44.209Z,5.20
2023-01-01T05:37:05.087Z,4.30
2023-01-01T05:39:32.813Z,5.30
2023-01-01T05:42:00.427Z,5.10
2023-01-01T05:44:28.181Z,5.10
2023-01-01T05:46:55.806Z,5.00
2023-01-01T05:49:23.440Z,4.60
2023-01-01T05:51:51.043Z,5.00
2023-01-01T05:56:45.241Z,4.50
2023-01-01T05:59:12.946Z,4.50
2023-01-01T06:01:45.394Z,4.50
2023-01-01T06:04:13.946Z,4.40
2023-01-01T06:06:41.758Z,4.60
2023-01-01T06:09:10.085Z,4.60
2023-01-01T06:11:37.928Z,4.70
2023-01-01T06:14:05.707Z,4.80
2023-01-01T06:16:33.609Z,4.60
2023-01-01T06:19:01.373Z,4.60
2023-01-01T06:21:29.573Z,4.90
2023-01-01T06:23:58.288Z,4.20
2023-01-01T06:26:31.356Z,5.00
2023-01-01T06:29:00.619Z,4.70
2023-01-01T06:31:31.194Z,4.80
2023-01-01T06:34:01.914Z,4.60
2023-01-01T06:36:29.534Z,4.20
2023-01-01T06:38:58.752Z,5.40
2023-01-01T06:41:27.993Z,4.80
2023-01-01T06:43:57.067Z,5.40
2023-01-01T06:46:30.781Z,5.10
2023-01-01T06:49:01.115Z,5.40
2023-01-01T06:51:31.097Z,4.80
2023-01-01T06:54:00.309Z,5.20
2023-01-01T06:56:29.263Z,4.80
2023-01-01T06:58:57.217Z,5.30
2023-01-01T07:01:27.299Z,5.20
2023-01-01T07:04:00.574Z,6.50
2023-01-01T07:06:29.916Z,4.60
2023-01-01T07:08:57.931Z,5.30
2023-01-01T07:11:26.066Z,5.20
2023-01-01T07:13:54.391Z,7.90
2023-01-01T07:16:23.123Z,6.20
2023-01-01T07:18:51.602Z,6.00
2023-01-01T07:21:29.792Z,5.50
2023-01-01T07:24:05.802Z,5.30
2023-01-01T07:26:34.209Z,5.30
2023-01-01T07:29:07.355Z,4.90
2023-01-01T07:31:40.350Z,5.20
2023-01-01T07:34:12.050Z,4.70
2023-01-01T07:36:39.720Z,4.70
2023-01-01T07:39:07.420Z,4.70
2023-01-01T07:41:35.124Z,5.30
2023-01-01T07:44:04.206Z,4.80
2023-01-01T07:46:34.577Z,5.50
2023-01-01T07:49:02.424Z,4.70
2023-01-01T07:51:30.141Z,5.40
2023-01-01T07:54:03.911Z,5.00
2023-01-01T07:56:35.295Z,5.10
2023-01-01T07:59:03.078Z,4.80
2023-01-01T08:01:30.864Z,4.80
2023-01-01T08:03:58.583Z,5.70
2023-01-01T08:06:26.312Z,5.00
2023-01-01T08:08:53.975Z,4.90
2023-01-01T08:11:21.581Z,4.50
2023-01-01T08:13:49.438Z,4.90
2023-01-01T08:16:17.159Z,5.30
2023-01-01T08:18:44.913Z,5.00
2023-01-01T08:21:12.598Z,4.30
2023-01-01T08:23:40.283Z,4.40
2023-01-01T08:26:15.342Z,4.90
2023-01-01T08:28:43.507Z,4.70
2023-01-01T08:31:11.206Z,4.60
2023-01-01T08:33:39.296Z,6.00
2023-01-01T08:36:07.241Z,5.00
2023-01-01T08:38:34.841Z,4.60
2023-01-01T08:41:02.477Z,4.50
2023-01-01T08:43:30.147Z,4.80
2023-01-01T08:45:57.760Z,4.70
2023-01-01T08:48:30.566Z,5.10
2023-01-01T08:51:00.319Z,5.20
2023-01-01T08:53:32.264Z,5.20
2023-01-01T08:56:06.444Z,5.80
2023-01-01T08:58:36.157Z,5.70
2023-01-01T09:01:04.783Z,4.80
2023-01-01T09:03:33.255Z,5.00
2023-01-01T09:06:00.933Z,5.70
2023-01-01T09:08:28.671Z,4.90
2023-01-01T09:11:03.270Z,5.40
2023-01-01T09:13:31.575Z,5.10
2023-01-01T09:15:59.761Z,5.50
2023-01-01T09:18:27.566Z,5.50
2023-01-01T09:20:55.219Z,5.50
2023-01-01T09:23:22.901Z,5.60
2023-01-01T09:25:50.605Z,5.40
2023-01-01T09:28:25.185Z,6.10
2023-01-01T09:30:53.824Z,5.40
2023-01-01T09:33:21.576Z,5.60
2023-01-01T09:35:49.280Z,5.60
2023-01-01T09:38:16.930Z,5.20
2023-01-01T09:41:02.427Z,5.20
2023-01-01T09:43:39.970Z,4.90
2023-01-01T09:46:08.278Z,5.00
2023-01-01T09:48:38.491Z,4.80
2023-01-01T09:51:13.319Z,4.30
2023-01-01T09:53:42.685Z,4.50
2023-01-01T09:56:23.590Z,4.80
2023-01-01T09:58:51.390Z,5.20
2023-01-01T10:01:39.274Z,4.70
2023-01-01T10:04:25.875Z,4.80
2023-01-01T10:07:14.113Z,5.10
2023-01-01T10:09:56.729Z,4.60
2023-01-01T10:12:41.282Z,4.80
2023-01-01T10:15:24.322Z,5.00
2023-01-01T10:17:55.566Z,5.20
2023-01-01T10:20:36.951Z,5.20
2023-01-01T10:23:23.041Z,4.30
2023-01-01T10:25:50.660Z,4.80
2023-01-01T10:28:22.845Z,4.60
2023-01-01T10:30:53.495Z,4.50
2023-01-01T10:33:21.172Z,4.40
2023-01-01T10:35:50.580Z,4.70
2023-01-01T10:38:27.437Z,4.80
2023-01-01T10:41:03.953Z,4.90
2023-01-01T10:43:31.602Z,4.60
2023-01-01T10:46:02.372Z,4.70
2023-01-01T10:48:31.438Z,4.90
2023-01-01T10:51:01.862Z,4.40
2023-01-01T10:53:35.957Z,4.80
2023-01-01T10:56:06.147Z,4.40
2023-01-01T10:58:36.836Z,4.50
2023-01-01T11:01:06.991Z,5.10
2023-01-01T11:03:35.507Z,4.30
2023-01-01T11:06:22.868Z,5.10
2023-01-01T11:08:52.495Z,4.30
2023-01-01T11:11:47.881Z,4.80
2023-01-01T11:14:25.103Z,4.80
2023-01-01T11:16:53.535Z,4.90
2023-01-01T11:19:24.967Z,8.20
2023-01-01T11:21:52.609Z,5.60
2023-01-01T11:24:23.039Z,4.80
2023-01-01T11:26:55.210Z,6.40
2023-01-01T11:29:27.171Z,5.70
2023-01-01T11:31:55.896Z,13.10
2023-01-01T11:34:31.761Z,8.50
2023-01-01T11:37:12.474Z,7.70
2023-01-01T11:39:45.142Z,7.00
2023-01-01T11:42:21.659Z,5.70
2023-01-01T11:44:53.552Z,5.00
2023-01-01T11:47:25.555Z,5.50
2023-01-01T11:50:16.373Z,6.00
2023-01-01T11:52:48.284Z,4.90
2023-01-01T11:55:34.261Z,4.60
2023-01-01T11:58:36.038Z,5.10
2023-01-01T12:01:15.884Z,4.90
2023-01-01T12:03:54.895Z,5.20
2023-01-01T12:06:33.128Z,5.10
2023-01-01T12:09:26.086Z,5.20
2023-01-01T12:12:08.591Z,4.80
2023-01-01T12:14:54.568Z,5.40
2023-01-01T12:17:26.730Z,5.30
2023-01-01T12:20:10.669Z,5.40
2023-01-01T12:22:39.408Z,5.50
2023-01-01T12:25:12.459Z,5.60
2023-01-01T12:28:03.960Z,5.40
2023-01-01T12:30:47.503Z,5.70
2023-01-01T12:33:40.039Z,5.50
2023-01-01T12:36:21.133Z,5.40
2023-01-01T12:38:52.012Z,5.70
2023-01-01T12:41:37.860Z,6.40
2023-01-01T12:44:24.596Z,5.80
2023-01-01T12:47:26.790Z,5.60
2023-01-01T12:50:19.273Z,5.80
2023-01-01T12:52:49.990Z,8.80
2023-01-01T12:55:41.366Z,7.40
2023-01-01T12:58:28.515Z,6.40
2023-01-01T13:01:05.987Z,6.00
2023-01-01T13:03:47.225Z,6.30
2023-01-01T13:06:17.718Z,5.80
2023-01-01T13:08:51.495Z,5.80
2023-01-01T13:11:19.879Z,5.70
2023-01-01T13:13:47.629Z,5.60
2023-01-01T13:16:32.993Z,5.80
2023-01-01T13:19:02.999Z,5.10
2023-01-01T13:21:32.541Z,5.80
2023-01-01T13:24:04.529Z,5.20
2023-01-01T13:26:32.854Z,4.50
2023-01-01T13:29:05.459Z,5.30
2023-01-01T13:31:39.630Z,4.70
2023-01-01T13:34:44.507Z,5.40
2023-01-01T13:37:17.104Z,6.50
2023-01-01T13:39:51.907Z,6.60
2023-01-01T13:42:58.987Z,6.30
2023-01-01T13:46:10.478Z,6.10
2023-01-01T13:48:48.516Z,13.80
2023-01-01T13:54:44.805Z,6.20
2023-01-01T13:57:34.622Z,8.10
2023-01-01T14:00:22.879Z,6.30
2023-01-01T14:03:03.045Z,10.60
2023-01-01T14:05:42.695Z,6.10
2023-01-01T14:08:31.013Z,8.10
2023-01-01T14:11:01.938Z,7.30
2023-01-01T14:13:32.598Z,6.60
2023-01-01T14:16:08.918Z,10.20
2023-01-01T14:18:51.836Z,7.90
2023-01-01T14:21:21.582Z,7.20
2023-01-01T14:23:52.187Z,6.80
2023-01-01T14:26:22.023Z,6.70
2023-01-01T14:28:54.395Z,6.60
2023-01-01T14:31:25.870Z,6.90
2023-01-01T14:33:53.673Z,6.00
2023-01-01T14:36:25.743Z,6.40
2023-01-01T14:38:56.091Z,6.50
2023-01-01T14:41:31.005Z,6.60
2023-01-01T14:44:06.022Z,7.30
2023-01-01T14:46:34.539Z,7.10
2023-01-01T14:49:09.459Z,6.20
2023-01-01T14:51:44.070Z,9.20
2023-01-01T14:54:18.821Z,7.60
2023-01-01T14:56:48.819Z,6.80
2023-01-01T14:59:26.977Z,8.00
2023-01-01T15:02:10.101Z,6.90
2023-01-01T15:04:38.219Z,7.40
2023-01-01T15:07:06.512Z,7.30
2023-01-01T15:09:34.305Z,7.50
2023-01-01T15:12:03.189Z,7.40
2023-01-01T15:14:39.417Z,7.20
2023-01-01T15:17:14.570Z,7.70
2023-01-01T15:19:44.547Z,8.00
2023-01-01T15:22:17.859Z,8.30
2023-01-01T15:24:45.824Z,8.20
2023-01-01T15:27:33.598Z,8.50
2023-01-01T15:30:09.874Z,9.10
2023-01-01T15:32:41.402Z,9.20
2023-01-01T15:35:24.896Z,9.00
2023-01-01T15:38:09.853Z,8.50
2023-01-01T15:40:37.666Z,8.60
2023-01-01T15:43:12.222Z,8.80
2023-01-01T15:45:41.583Z,8.40
2023-01-01T15:48:25.359Z,9.10
2023-01-01T15:50:53.020Z,8.50
2023-01-01T15:53:23.313Z,8.10
2023-01-01T15:55:57.393Z,7.70
2023-01-01T15:58:37.507Z,8.50
2023-01-01T16:01:12.465Z,9.00
2023-01-01T16:03:41.594Z,9.10
2023-01-01T16:06:17.024Z,8.70
2023-01-01T16:08:44.785Z,11.90
2023-01-01T16:11:14.252Z,9.70
2023-01-01T16:13:42.233Z,10.60
2023-01-01T16:16:28.081Z,9.10
2023-01-01T16:18:56.638Z,9.30
2023-01-01T16:21:27.588Z,9.40
2023-01-01T16:23:55.734Z,9.20
2023-01-01T16:26:23.521Z,9.80
2023-01-01T16:28:51.773Z,9.30
2023-01-01T16:31:23.593Z,10.60
2023-01-01T16:33:54.662Z,10.30
2023-01-01T16:36:23.193Z,11.60
2023-01-01T16:38:50.977Z,12.70
2023-01-01T16:41:18.988Z,11.40
2023-01-01T16:43:47.276Z,10.60
2023-01-01T16:46:15.649Z,10.80
2023-01-01T16:48:43.849Z,10.70
2023-01-01T16:51:31.819Z,10.10
2023-01-01T16:54:01.084Z,12.10
2023-01-01T16:56:29.673Z,10.90
2023-01-01T16:59:02.769Z,12.80
2023-01-01T17:01:31.828Z,10.70
2023-01-01T17:04:00.400Z,11.10
2023-01-01T17:06:28.591Z,10.90
2023-01-01T17:08:56.333Z,10.60
2023-01-01T17:11:25.100Z,11.60
2023-01-01T17:13:53.013Z,15.00
2023-01-01T17:16:27.138Z,11.00
2023-01-01T17:21:46.142Z,12.70
2023-01-01T17:24:18.661Z,13.40
2023-01-01T17:26:50.598Z,12.20
2023-01-01T17:29:19.464Z,12.00
2023-01-01T17:31:47.472Z,12.00
2023-01-01T17:34:15.404Z,11.30
2023-01-01T17:36:44.514Z,12.00
2023-01-01T17:39:15.830Z,12.70
2023-01-01T17:41:44.558Z,12.20
2023-01-01T17:44:12.748Z,11.00
2023-01-01T17:46:40.664Z,11.10
2023-01-01T17:49:09.587Z,11.60
2023-01-01T17:51:39.387Z,10.90
2023-01-01T17:54:10.334Z,11.50
2023-01-01T17:56:38.258Z,11.00
2023-01-01T17:59:05.942Z,11.70
2023-01-01T18:01:35.547Z,10.80
2023-01-01T18:04:08.042Z,11.10
2023-01-01T18:06:42.055Z,11.30
2023-01-01T18:09:12.392Z,11.80
2023-01-01T18:11:41.001Z,11.50
2023-01-01T18:14:09.659Z,11.20
2023-01-01T18:16:39.582Z,12.50
2023-01-01T18:19:07.652Z,13.70
2023-01-01T18:21:35.728Z,13.20
2023-01-01T18:24:08.213Z,11.60
2023-01-01T18:26:36.123Z,11.80
2023-01-01T18:29:04.496Z,18.00
2023-01-01T18:31:33.936Z,11.40
2023-01-01T18:34:04.136Z,11.20
2023-01-01T18:36:33.630Z,11.70
2023-01-01T18:39:15.512Z,11.10
2023-01-01T18:41:55.396Z,11.60
2023-01-01T18:44:26.706Z,11.40
2023-01-01T18:47:06.698Z,12.30
2023-01-01T18:49:36.349Z,12.40
2023-01-01T18:52:21.688Z,12.20
2023-01-01T18:55:10.476Z,11.90
2023-01-01T18:57:38.474Z,12.40
2023-01-01T19:00:18.994Z,12.90
2023-01-01T19:02:59.113Z,12.80
2023-01-01T19:05:35.632Z,12.10
2023-01-01T19:08:16.879Z,13.50
2023-01-01T19:10:58.537Z,14.10
2023-01-01T19:13:33.080Z,13.20
2023-01-01T19:16:10.628Z,13.30
2023-01-01T19:18:40.881Z,13.50
2023-01-01T19:21:11.370Z,13.30
2023-01-01T19:23:51.840Z,12.60
2023-01-01T19:26:29.967Z,13.60
2023-01-01T19:29:13.225Z,14.40
2023-01-01T19:31:41.272Z,13.10
2023-01-01T19:34:09.130Z,13.30
2023-01-01T19:36:39.532Z,14.70
2023-01-01T19:39:07.837Z,14.90
2023-01-01T19:41:36.222Z,13.30
2023-01-01T19:44:09.854Z,17.40
2023-01-01T19:46:39.717Z,15.10
2023-01-01T19:49:07.551Z,15.70
2023-01-01T19:51:36.373Z,13.90
2023-01-01T19:54:04.117Z,14.90
2023-01-01T19:56:31.761Z,13.50
2023-01-01T19:58:59.577Z,13.10
2023-01-01T20:01:27.399Z,13.80
2023-01-01T20:03:57.872Z,14.10
2023-01-01T20:06:26.729Z,13.90
2023-01-01T20:08:54.935Z,13.40
2023-01-01T20:11:23.159Z,13.60
2023-01-01T20:13:50.854Z,14.70
2023-01-01T20:16:18.553Z,13.70
2023-01-01T20:18:46.362Z,14.80
2023-01-01T20:21:32.561Z,14.40
2023-01-01T20:24:00.653Z,14.60
2023-01-01T20:26:28.366Z,14.60
2023-01-01T20:29:14.509Z,15.30
2023-01-01T20:31:42.887Z,15.20
2023-01-01T20:34:11.433Z,16.20
2023-01-01T20:36:57.877Z,14.00
2023-01-01T20:39:26.349Z,14.30
2023-01-01T20:41:55.139Z,15.40
2023-01-01T20:44:22.879Z,14.70
2023-01-01T20:46:50.988Z,14.70
2023-01-01T20:49:19.393Z,14.40
2023-01-01T20:51:49.716Z,14.90
2023-01-01T20:54:18.376Z,14.80
2023-01-01T20:56:46.674Z,14.70
2023-01-01T20:59:34.977Z,14.00
2023-01-01T21:02:08.783Z,14.30
2023-01-01T21:04:38.530Z,15.40
2023-01-01T21:07:11.154Z,14.10
2023-01-01T21:09:40.136Z,14.80
2023-01-01T21:12:08.795Z,14.30
2023-01-01T21:14:36.605Z,14.90
2023-01-01T21:17:33.812Z,15.60
2023-01-01T21:20:01.497Z,15.90
2023-01-01T21:22:29.252Z,16.00
2023-01-01T21:25:16.792Z,17.20
2023-01-01T21:27:44.867Z,16.60
2023-01-01T21:30:13.478Z,17.60
2023-01-01T21:32:43.231Z,16.70
2023-01-01T21:35:32.632Z,17.80
2023-01-01T21:38:16.351Z,17.60
2023-01-01T21:41:01.007Z,16.70
2023-01-01T21:43:42.230Z,16.60
2023-01-01T21:46:09.888Z,16.80
2023-01-01T21:48:58.397Z,16.80
2023-01-01T21:51:36.870Z,16.70
2023-01-01T21:54:10.672Z,15.70
2023-01-01T21:56:40.700Z,16.80
2023-01-01T21:59:27.385Z,16.60
2023-01-01T22:02:26.151Z,16.30
2023-01-01T22:04:54.279Z,15.80
2023-01-01T22:10:17.425Z,15.60
2023-01-01T22:12:45.877Z,16.00
2023-01-01T22:15:25.942Z,15.70
2023-01-01T22:18:11.806Z,15.70
2023-01-01T22:20:42.744Z,15.90
2023-01-01T22:23:19.658Z,15.50
2023-01-01T22:25:47.589Z,16.40
2023-01-01T22:28:23.039Z,16.70
2023-01-01T22:31:00.951Z,16.50
2023-01-01T22:33:35.239Z,16.80
2023-01-01T22:36:03.043Z,16.20
2023-01-01T22:38:33.264Z,16.70
2023-01-01T22:41:01.468Z,16.90
2023-01-01T22:43:34.863Z,17.80
2023-01-01T22:46:26.470Z,16.60
2023-01-01T22:48:59.014Z,17.50
2023-01-01T22:51:58.430Z,17.70
2023-01-01T22:54:26.258Z,17.10
2023-01-01T22:56:53.937Z,17.20
2023-01-01T22:59:21.615Z,17.50
2023-01-01T23:01:49.329Z,15.90
2023-01-01T23:04:17.076Z,16.70
2023-01-01T23:06:44.857Z,15.80
2023-01-01T23:09:12.974Z,15.80
2023-01-01T23:11:40.624Z,16.80
2023-01-01T23:14:27.075Z,16.50
2023-01-01T23:16:54.754Z,17.40
2023-01-01T23:19:22.412Z,15.90
2023-01-01T23:21:50.478Z,16.10
2023-01-01T23:24:20.312Z,15.90
2023-01-01T23:26:48.418Z,16.40
2023-01-01T23:29:17.418Z,15.50
2023-01-01T23:31:45.354Z,16.10
2023-01-01T23:34:13.180Z,15.70
2023-01-01T23:36:41.995Z,15.00
2023-01-01T23:39:09.685Z,15.60
2023-01-01T23:41:37.449Z,15.30
2023-01-01T23:44:05.268Z,15.30
2023-01-01T23:46:34.675Z,15.50
2023-01-01T23:49:03.474Z,14.60
2023-01-01T23:51:32.663Z,14.90
2023-01-01T23:54:00.271Z,14.30
2023-01-01T23:56:28.047Z,14.90
2023-01-01T23:58:55.671Z,15.20
